createdAt,value
2023-12-18T00:00:07.097Z,0.00
2023-12-18T00:01:07.181Z,0.00
2023-12-18T00:02:07.038Z,0.00
2023-12-18T00:03:07.127Z,0.00
2023-12-18T00:04:07.095Z,0.00
2023-12-18T00:05:07.059Z,0.00
2023-12-18T00:06:07.018Z,0.00
2023-12-18T00:07:07.009Z,0.00
2023-12-18T00:08:06.992Z,0.00
2023-12-18T00:09:06.996Z,0.00
2023-12-18T00:10:06.972Z,0.00
2023-12-18T00:11:06.928Z,0.00
2023-12-18T00:12:06.923Z,0.00
2023-12-18T00:13:06.962Z,0.00
2023-12-18T00:14:06.893Z,0.00
2023-12-18T00:15:06.918Z,0.00
2023-12-18T00:16:06.834Z,0.00
2023-12-18T00:17:06.927Z,0.00
2023-12-18T00:18:06.966Z,0.00
2023-12-18T00:19:06.948Z,0.00
2023-12-18T00:20:06.830Z,0.00
2023-12-18T00:21:06.814Z,0.00
2023-12-18T00:22:06.762Z,0.00
2023-12-18T00:23:06.769Z,0.00
2023-12-18T00:24:06.797Z,0.00
2023-12-18T00:25:06.778Z,0.00
2023-12-18T00:26:06.734Z,0.00
2023-12-18T00:27:06.763Z,0.00
2023-12-18T00:28:06.727Z,0.00
2023-12-18T00:29:06.748Z,0.00
2023-12-18T00:30:06.704Z,0.00
2023-12-18T00:31:06.757Z,0.00
2023-12-18T00:32:06.636Z,0.00
2023-12-18T00:33:06.738Z,0.00
2023-12-18T00:34:06.792Z,0.00
2023-12-18T00:35:06.666Z,0.00
2023-12-18T00:36:06.609Z,0.00
2023-12-18T00:37:06.629Z,0.00
2023-12-18T00:38:06.602Z,0.00
2023-12-18T00:39:06.581Z,0.00
2023-12-18T00:40:06.615Z,0.00
2023-12-18T00:41:07.017Z,0.00
2023-12-18T00:42:06.595Z,0.00
2023-12-18T00:43:06.499Z,0.00
2023-12-18T00:44:06.519Z,0.00
2023-12-18T00:45:06.492Z,0.00
2023-12-18T00:46:06.532Z,0.00
2023-12-18T00:47:06.456Z,0.00
2023-12-18T00:48:06.525Z,0.00
2023-12-18T00:49:06.598Z,0.00
2023-12-18T00:50:07.897Z,0.00
2023-12-18T00:51:06.435Z,0.00
2023-12-18T00:52:06.443Z,0.00
2023-12-18T00:53:06.370Z,0.00
2023-12-18T00:54:06.440Z,0.00
2023-12-18T00:55:06.376Z,0.00
2023-12-18T00:56:06.398Z,0.00
2023-12-18T00:57:06.356Z,0.00
2023-12-18T00:58:06.356Z,0.00
2023-12-18T00:59:06.297Z,0.00
2023-12-18T01:00:06.379Z,0.00
2023-12-18T01:01:06.439Z,0.00
2023-12-18T01:02:06.286Z,0.00
2023-12-18T01:03:06.337Z,0.00
2023-12-18T01:04:06.353Z,0.00
2023-12-18T01:05:06.281Z,0.00
2023-12-18T01:06:06.260Z,0.00
2023-12-18T01:07:06.196Z,0.00
2023-12-18T01:08:06.191Z,0.00
2023-12-18T01:09:06.202Z,0.00
2023-12-18T01:10:06.191Z,0.00
2023-12-18T01:11:06.155Z,0.00
2023-12-18T01:12:06.180Z,0.00
2023-12-18T01:13:06.133Z,0.00
2023-12-18T01:14:06.164Z,0.00
2023-12-18T01:15:06.122Z,0.00
2023-12-18T01:16:06.089Z,0.00
2023-12-18T01:17:06.091Z,0.00
2023-12-18T01:18:06.230Z,0.00
2023-12-18T01:19:06.213Z,0.00
2023-12-18T01:20:06.083Z,0.00
2023-12-18T01:21:06.055Z,0.00
2023-12-18T01:22:06.073Z,0.00
2023-12-18T01:23:05.994Z,0.00
2023-12-18T01:24:06.033Z,0.00
2023-12-18T01:25:05.998Z,0.00
2023-12-18T01:26:05.979Z,0.00
2023-12-18T01:27:05.952Z,0.00
2023-12-18T01:28:05.937Z,0.00
2023-12-18T01:29:05.940Z,0.00
2023-12-18T01:30:05.977Z,0.00
2023-12-18T01:31:05.968Z,0.00
2023-12-18T01:32:05.910Z,0.00
2023-12-18T01:33:06.018Z,0.00
2023-12-18T01:34:05.923Z,0.00
2023-12-18T01:35:05.837Z,0.00
2023-12-18T01:36:05.952Z,0.00
2023-12-18T01:37:05.825Z,0.00
2023-12-18T01:38:05.820Z,0.00
2023-12-18T01:39:05.788Z,0.00
2023-12-18T01:40:05.796Z,0.00
2023-12-18T01:41:05.770Z,0.00
2023-12-18T01:42:05.837Z,0.00
2023-12-18T01:43:05.722Z,0.00
2023-12-18T01:44:05.771Z,0.00
2023-12-18T01:45:05.714Z,0.00
2023-12-18T01:46:05.710Z,0.00
2023-12-18T01:47:05.668Z,0.00
2023-12-18T01:48:05.800Z,0.00
2023-12-18T01:49:05.800Z,0.00
2023-12-18T01:50:05.691Z,0.00
2023-12-18T01:51:05.682Z,0.00
2023-12-18T01:52:05.618Z,0.00
2023-12-18T01:53:05.594Z,0.00
2023-12-18T01:54:05.652Z,0.00
2023-12-18T01:55:05.572Z,0.00
2023-12-18T01:56:05.579Z,0.00
2023-12-18T01:57:05.656Z,0.00
2023-12-18T01:58:05.558Z,0.00
2023-12-18T01:59:05.506Z,0.00
2023-12-18T02:00:05.593Z,0.00
2023-12-18T02:01:05.648Z,0.00
2023-12-18T02:02:05.499Z,0.00
2023-12-18T02:03:05.527Z,0.00
2023-12-18T02:04:05.581Z,0.00
2023-12-18T02:05:05.433Z,0.00
2023-12-18T02:06:05.493Z,0.00
2023-12-18T02:07:05.429Z,0.00
2023-12-18T02:08:05.427Z,0.00
2023-12-18T02:09:05.504Z,0.00
2023-12-18T02:10:05.416Z,0.00
2023-12-18T02:11:05.349Z,0.00
2023-12-18T02:12:05.428Z,0.00
2023-12-18T02:13:05.356Z,0.00
2023-12-18T02:14:05.376Z,0.00
2023-12-18T02:15:05.365Z,0.00
2023-12-18T02:16:05.350Z,0.00
2023-12-18T02:17:05.310Z,0.00
2023-12-18T02:18:05.422Z,0.00
2023-12-18T02:19:05.311Z,0.00
2023-12-18T02:20:05.336Z,0.00
2023-12-18T02:21:05.280Z,0.00
2023-12-18T02:22:05.256Z,0.00
2023-12-18T02:23:05.245Z,0.00
2023-12-18T02:24:05.249Z,0.00
2023-12-18T02:25:05.232Z,0.00
2023-12-18T02:26:05.204Z,0.00
2023-12-18T02:27:05.170Z,0.00
2023-12-18T02:28:05.157Z,0.00
2023-12-18T02:29:05.125Z,0.00
2023-12-18T02:30:05.307Z,0.00
2023-12-18T02:31:05.210Z,0.00
2023-12-18T02:32:05.114Z,0.00
2023-12-18T02:33:05.146Z,0.00
2023-12-18T02:34:05.206Z,0.00
2023-12-18T02:35:05.149Z,0.00
2023-12-18T02:36:05.152Z,0.00
2023-12-18T02:37:05.014Z,0.00
2023-12-18T02:38:05.063Z,0.00
2023-12-18T02:39:05.053Z,0.00
2023-12-18T02:40:05.008Z,0.00
2023-12-18T02:41:04.973Z,0.00
2023-12-18T02:42:05.012Z,0.00
2023-12-18T02:43:05.233Z,0.00
2023-12-18T02:44:04.990Z,0.00
2023-12-18T02:45:04.992Z,0.00
2023-12-18T02:46:04.988Z,0.00
2023-12-18T02:47:04.916Z,0.00
2023-12-18T02:48:04.987Z,0.00
2023-12-18T02:49:04.906Z,0.00
2023-12-18T02:50:04.879Z,0.00
2023-12-18T02:51:04.944Z,0.00
2023-12-18T02:52:04.872Z,0.00
2023-12-18T02:53:04.836Z,0.00
2023-12-18T02:54:04.908Z,0.00
2023-12-18T02:55:04.812Z,0.00
2023-12-18T02:56:04.824Z,0.00
2023-12-18T02:57:04.848Z,0.00
2023-12-18T02:58:04.793Z,0.00
2023-12-18T02:59:04.783Z,0.00
2023-12-18T03:00:04.849Z,0.00
2023-12-18T03:01:04.735Z,0.00
2023-12-18T03:02:04.742Z,0.00
2023-12-18T03:03:04.800Z,0.00
2023-12-18T03:04:04.819Z,0.00
2023-12-18T03:05:04.716Z,0.00
2023-12-18T03:06:04.747Z,0.00
2023-12-18T03:07:04.633Z,0.00
2023-12-18T03:08:04.668Z,0.00
2023-12-18T03:09:04.635Z,0.00
2023-12-18T03:10:04.635Z,0.00
2023-12-18T03:11:04.598Z,0.00
2023-12-18T03:12:04.617Z,0.00
2023-12-18T03:13:04.582Z,0.00
2023-12-18T03:14:04.565Z,0.00
2023-12-18T03:15:04.572Z,0.00
2023-12-18T03:16:04.611Z,0.00
2023-12-18T03:17:04.519Z,0.00
2023-12-18T03:18:04.610Z,0.00
2023-12-18T03:19:04.524Z,0.00
2023-12-18T03:20:04.501Z,0.00
2023-12-18T03:21:04.468Z,0.00
2023-12-18T03:22:04.508Z,0.00
2023-12-18T03:23:04.429Z,0.00
2023-12-18T03:24:04.462Z,0.00
2023-12-18T03:25:04.434Z,0.00
2023-12-18T03:26:04.410Z,0.00
2023-12-18T03:27:04.417Z,0.00
2023-12-18T03:28:04.439Z,0.00
2023-12-18T03:29:04.360Z,0.00
2023-12-18T03:30:04.449Z,0.00
2023-12-18T03:31:04.399Z,0.00
2023-12-18T03:32:04.351Z,0.00
2023-12-18T03:33:04.396Z,0.00
2023-12-18T03:34:04.506Z,0.00
2023-12-18T03:35:04.294Z,0.00
2023-12-18T03:36:04.306Z,0.00
2023-12-18T03:37:04.241Z,0.00
2023-12-18T03:38:04.283Z,0.00
2023-12-18T03:39:04.280Z,0.00
2023-12-18T03:40:04.243Z,0.00
2023-12-18T03:41:04.223Z,0.00
2023-12-18T03:42:04.282Z,0.00
2023-12-18T03:43:04.186Z,0.00
2023-12-18T03:44:04.182Z,0.00
2023-12-18T03:45:04.207Z,0.00
2023-12-18T03:46:04.153Z,0.00
2023-12-18T03:47:04.135Z,0.00
2023-12-18T03:48:04.342Z,0.00
2023-12-18T03:49:04.188Z,0.00
2023-12-18T03:50:04.106Z,0.00
2023-12-18T03:51:04.123Z,0.00
2023-12-18T03:52:04.061Z,0.00
2023-12-18T03:53:04.040Z,0.00
2023-12-18T03:54:04.200Z,0.00
2023-12-18T03:55:04.035Z,0.00
2023-12-18T03:56:04.018Z,0.00
2023-12-18T03:57:04.058Z,0.00
2023-12-18T03:58:04.008Z,0.00
2023-12-18T03:59:04.014Z,0.00
2023-12-18T04:00:04.024Z,0.00
2023-12-18T04:01:04.073Z,0.00
2023-12-18T04:02:03.953Z,0.00
2023-12-18T04:03:03.931Z,0.00
2023-12-18T04:04:04.157Z,0.00
2023-12-18T04:05:03.936Z,0.00
2023-12-18T04:06:03.937Z,0.00
2023-12-18T04:07:03.873Z,0.00
2023-12-18T04:08:03.892Z,0.00
2023-12-18T04:09:03.957Z,0.00
2023-12-18T04:10:03.890Z,0.00
2023-12-18T04:11:03.804Z,0.00
2023-12-18T04:12:03.934Z,0.00
2023-12-18T04:13:03.798Z,0.00
2023-12-18T04:14:03.784Z,0.00
2023-12-18T04:15:03.839Z,0.00
2023-12-18T04:16:03.793Z,0.00
2023-12-18T04:17:03.733Z,0.00
2023-12-18T04:18:03.934Z,0.00
2023-12-18T04:19:03.992Z,0.00
2023-12-18T04:20:03.774Z,0.00
2023-12-18T04:21:03.717Z,0.00
2023-12-18T04:22:03.690Z,0.00
2023-12-18T04:23:03.652Z,0.00
2023-12-18T04:24:03.749Z,0.00
2023-12-18T04:25:03.634Z,0.00
2023-12-18T04:26:03.668Z,0.00
2023-12-18T04:27:03.612Z,0.00
2023-12-18T04:28:04.358Z,0.00
2023-12-18T04:29:03.577Z,0.00
2023-12-18T04:30:03.711Z,0.00
2023-12-18T04:31:03.669Z,0.00
2023-12-18T04:32:03.566Z,0.00
2023-12-18T04:33:03.660Z,0.00
2023-12-18T04:34:03.629Z,0.00
2023-12-18T04:35:03.547Z,0.00
2023-12-18T04:36:03.601Z,0.00
2023-12-18T04:37:04.975Z,0.00
2023-12-18T04:38:03.577Z,0.00
2023-12-18T04:39:03.458Z,0.00
2023-12-18T04:40:03.483Z,0.00
2023-12-18T04:41:03.450Z,0.00
2023-12-18T04:42:03.484Z,0.00
2023-12-18T04:43:03.396Z,0.00
2023-12-18T04:44:03.415Z,0.00
2023-12-18T04:45:03.428Z,0.00
2023-12-18T04:46:03.434Z,0.00
2023-12-18T04:47:03.350Z,0.00
2023-12-18T04:48:03.482Z,0.00
2023-12-18T04:49:03.427Z,0.00
2023-12-18T04:50:03.333Z,0.00
2023-12-18T04:51:03.364Z,0.00
2023-12-18T04:52:03.309Z,0.00
2023-12-18T04:53:03.263Z,0.00
2023-12-18T04:54:03.337Z,0.00
2023-12-18T04:55:03.267Z,0.00
2023-12-18T04:56:03.257Z,0.00
2023-12-18T04:57:03.294Z,0.00
2023-12-18T04:58:03.203Z,0.00
2023-12-18T04:59:03.202Z,0.00
2023-12-18T05:00:03.208Z,0.00
2023-12-18T05:01:03.268Z,0.00
2023-12-18T05:02:03.143Z,0.00
2023-12-18T05:03:03.232Z,0.00
2023-12-18T05:04:03.199Z,0.00
2023-12-18T05:05:03.158Z,0.00
2023-12-18T05:06:03.139Z,0.00
2023-12-18T05:07:03.107Z,0.00
2023-12-18T05:08:03.069Z,0.00
2023-12-18T05:09:03.232Z,0.00
2023-12-18T05:10:03.041Z,0.00
2023-12-18T05:11:03.068Z,0.00
2023-12-18T05:12:03.033Z,0.00
2023-12-18T05:13:03.052Z,0.00
2023-12-18T05:14:03.008Z,0.00
2023-12-18T05:15:04.367Z,0.00
2023-12-18T05:16:03.011Z,0.00
2023-12-18T05:17:03.019Z,0.00
2023-12-18T05:18:03.032Z,0.00
2023-12-18T05:19:03.003Z,0.00
2023-12-18T05:20:02.958Z,0.00
2023-12-18T05:21:02.928Z,0.00
2023-12-18T05:22:02.913Z,0.00
2023-12-18T05:23:02.916Z,0.00
2023-12-18T05:24:02.867Z,0.00
2023-12-18T05:25:02.909Z,0.00
2023-12-18T05:26:02.844Z,0.00
2023-12-18T05:27:02.862Z,0.00
2023-12-18T05:28:02.828Z,0.00
2023-12-18T05:29:02.834Z,0.00
2023-12-18T05:30:02.834Z,0.00
2023-12-18T05:31:02.865Z,0.00
2023-12-18T05:32:02.791Z,0.00
2023-12-18T05:33:02.851Z,0.00
2023-12-18T05:34:02.874Z,0.00
2023-12-18T05:35:02.772Z,0.00
2023-12-18T05:36:02.705Z,0.00
2023-12-18T05:37:02.743Z,0.00
2023-12-18T05:38:02.714Z,0.00
2023-12-18T05:39:02.713Z,0.00
2023-12-18T05:40:02.651Z,0.00
2023-12-18T05:41:02.702Z,0.00
2023-12-18T05:42:02.651Z,0.00
2023-12-18T05:43:02.731Z,0.00
2023-12-18T05:44:02.607Z,0.00
2023-12-18T05:45:02.632Z,0.00
2023-12-18T05:46:02.580Z,0.00
2023-12-18T05:47:02.606Z,0.00
2023-12-18T05:48:02.802Z,0.00
2023-12-18T05:49:02.716Z,0.00
2023-12-18T05:50:02.666Z,0.00
2023-12-18T05:51:02.561Z,0.00
2023-12-18T05:52:02.573Z,0.00
2023-12-18T05:53:02.549Z,0.00
2023-12-18T05:54:02.497Z,0.00
2023-12-18T05:55:02.994Z,0.00
2023-12-18T05:56:02.448Z,0.00
2023-12-18T05:57:02.487Z,0.00
2023-12-18T05:58:02.468Z,0.00
2023-12-18T05:59:02.471Z,0.00
2023-12-18T06:00:02.412Z,0.00
2023-12-18T06:01:03.078Z,0.00
2023-12-18T06:02:02.398Z,0.00
2023-12-18T06:03:02.420Z,0.00
2023-12-18T06:04:02.409Z,0.00
2023-12-18T06:05:02.359Z,0.00
2023-12-18T06:06:02.355Z,0.00
2023-12-18T06:07:02.375Z,0.00
2023-12-18T06:08:02.335Z,0.00
2023-12-18T06:09:02.311Z,0.00
2023-12-18T06:10:02.323Z,0.00
2023-12-18T06:11:02.282Z,0.00
2023-12-18T06:12:02.272Z,0.00
2023-12-18T06:13:02.379Z,0.00
2023-12-18T06:14:02.267Z,0.00
2023-12-18T06:15:02.241Z,0.00
2023-12-18T06:16:02.187Z,0.00
2023-12-18T06:17:02.233Z,0.00
2023-12-18T06:18:02.240Z,0.00
2023-12-18T06:19:02.322Z,0.00
2023-12-18T06:20:02.177Z,0.00
2023-12-18T06:21:02.150Z,0.00
2023-12-18T06:22:02.123Z,0.00
2023-12-18T06:23:02.179Z,0.00
2023-12-18T06:24:02.124Z,0.00
2023-12-18T06:25:02.160Z,0.00
2023-12-18T06:26:03.487Z,0.00
2023-12-18T06:27:02.106Z,0.00
2023-12-18T06:28:02.065Z,0.00
2023-12-18T06:29:02.046Z,0.00
2023-12-18T06:30:02.011Z,0.00
2023-12-18T06:31:02.235Z,0.00
2023-12-18T06:32:02.085Z,0.00
2023-12-18T06:33:02.117Z,0.00
2023-12-18T06:34:02.143Z,0.00
2023-12-18T06:35:02.112Z,0.00
2023-12-18T06:36:01.994Z,0.00
2023-12-18T06:37:01.936Z,0.00
2023-12-18T06:38:01.904Z,0.00
2023-12-18T06:39:01.936Z,0.00
2023-12-18T06:40:01.899Z,0.00
2023-12-18T06:41:01.927Z,0.00
2023-12-18T06:42:01.856Z,0.00
2023-12-18T06:43:01.900Z,0.00
2023-12-18T06:44:01.866Z,0.00
2023-12-18T06:45:01.828Z,0.00
2023-12-18T06:46:01.817Z,0.00
2023-12-18T06:47:01.834Z,0.00
2023-12-18T06:48:01.899Z,0.00
2023-12-18T06:49:01.851Z,0.00
2023-12-18T06:50:01.785Z,0.00
2023-12-18T06:51:01.757Z,0.00
2023-12-18T06:52:01.761Z,0.00
2023-12-18T06:53:01.751Z,0.00
2023-12-18T06:54:01.701Z,0.00
2023-12-18T06:55:01.728Z,0.00
2023-12-18T06:56:01.706Z,0.00
2023-12-18T06:57:01.681Z,0.00
2023-12-18T06:58:01.644Z,0.00
2023-12-18T06:59:01.653Z,0.00
2023-12-18T07:00:01.641Z,0.00
2023-12-18T07:01:01.827Z,0.00
2023-12-18T07:02:01.626Z,4.00
2023-12-18T07:03:01.681Z,0.00
2023-12-18T07:04:01.653Z,0.00
2023-12-18T07:05:01.614Z,0.00
2023-12-18T07:06:01.562Z,4.00
2023-12-18T07:07:01.587Z,0.00
2023-12-18T07:08:01.527Z,0.00
2023-12-18T07:09:01.595Z,4.00
2023-12-18T07:10:01.593Z,4.00
2023-12-18T07:11:01.554Z,0.00
2023-12-18T07:12:01.458Z,4.00
2023-12-18T07:13:01.522Z,4.00
2023-12-18T07:14:01.439Z,4.00
2023-12-18T07:15:01.517Z,4.00
2023-12-18T07:16:01.469Z,4.00
2023-12-18T07:17:01.445Z,4.00
2023-12-18T07:18:01.431Z,8.00
2023-12-18T07:19:01.546Z,8.00
2023-12-18T07:20:01.392Z,8.00
2023-12-18T07:21:01.368Z,12.00
2023-12-18T07:22:01.375Z,12.00
2023-12-18T07:23:01.377Z,12.00
2023-12-18T07:24:01.316Z,12.00
2023-12-18T07:25:01.344Z,12.00
2023-12-18T07:26:01.324Z,16.00
2023-12-18T07:27:01.314Z,16.00
2023-12-18T07:28:01.399Z,16.00
2023-12-18T07:29:01.315Z,20.00
2023-12-18T07:30:01.221Z,24.00
2023-12-18T07:31:01.364Z,24.00
2023-12-18T07:32:01.220Z,24.00
2023-12-18T07:33:01.310Z,24.00
2023-12-18T07:34:01.340Z,28.00
2023-12-18T07:35:01.403Z,28.00
2023-12-18T07:36:01.188Z,32.00
2023-12-18T07:37:01.180Z,36.00
2023-12-18T07:38:01.148Z,32.00
2023-12-18T07:39:01.151Z,40.00
2023-12-18T07:40:01.138Z,40.00
2023-12-18T07:41:01.139Z,40.00
2023-12-18T07:42:01.118Z,44.00
2023-12-18T07:43:01.094Z,44.00
2023-12-18T07:44:01.050Z,44.00
2023-12-18T07:45:01.089Z,52.00
2023-12-18T07:46:01.073Z,48.00
2023-12-18T07:47:01.068Z,52.00
2023-12-18T07:48:01.084Z,52.00
2023-12-18T07:49:01.163Z,52.00
2023-12-18T07:50:01.006Z,60.00
2023-12-18T07:51:01.000Z,56.00
2023-12-18T07:52:00.978Z,60.00
2023-12-18T07:53:00.981Z,68.00
2023-12-18T07:54:00.979Z,68.00
2023-12-18T07:55:00.938Z,68.00
2023-12-18T07:56:00.903Z,72.00
2023-12-18T07:57:00.923Z,72.00
2023-12-18T07:58:00.873Z,80.00
2023-12-18T07:59:00.885Z,76.00
2023-12-18T08:00:00.891Z,84.00
2023-12-18T08:01:00.948Z,92.00
2023-12-18T08:02:00.850Z,92.00
2023-12-18T08:03:00.875Z,104.00
2023-12-18T08:04:00.911Z,104.00
2023-12-18T08:05:00.846Z,120.00
2023-12-18T08:06:00.801Z,116.00
2023-12-18T08:07:00.788Z,116.00
2023-12-18T08:08:00.824Z,108.00
2023-12-18T08:09:00.772Z,132.00
2023-12-18T08:10:00.719Z,136.00
2023-12-18T08:11:00.758Z,136.00
2023-12-18T08:12:00.707Z,140.00
2023-12-18T08:13:00.753Z,160.00
2023-12-18T08:14:00.686Z,160.00
2023-12-18T08:15:00.725Z,164.00
2023-12-18T08:16:00.642Z,172.00
2023-12-18T08:17:00.653Z,176.00
2023-12-18T08:18:00.701Z,192.00
2023-12-18T08:19:00.735Z,208.00
2023-12-18T08:20:00.589Z,212.00
2023-12-18T08:21:00.621Z,204.00
2023-12-18T08:22:00.580Z,200.00
2023-12-18T08:23:00.591Z,208.00
2023-12-18T08:24:00.548Z,212.00
2023-12-18T08:25:00.613Z,208.00
2023-12-18T08:26:00.553Z,200.00
2023-12-18T08:27:00.551Z,204.00
2023-12-18T08:28:00.684Z,204.00
2023-12-18T08:29:00.500Z,220.00
2023-12-18T08:30:00.506Z,212.00
2023-12-18T08:31:00.573Z,220.00
2023-12-18T08:32:00.501Z,228.00
2023-12-18T08:33:00.542Z,236.00
2023-12-18T08:34:00.636Z,228.00
2023-12-18T08:35:00.432Z,232.00
2023-12-18T08:36:00.394Z,244.00
2023-12-18T08:37:00.431Z,236.00
2023-12-18T08:38:00.438Z,228.00
2023-12-18T08:39:00.996Z,228.00
2023-12-18T08:40:00.508Z,228.00
2023-12-18T08:41:00.359Z,228.00
2023-12-18T08:42:00.323Z,236.00
2023-12-18T08:43:00.414Z,236.00
2023-12-18T08:44:05.593Z,256.00
2023-12-18T08:45:00.373Z,236.00
2023-12-18T08:46:00.265Z,244.00
2023-12-18T08:47:00.260Z,252.00
2023-12-18T08:48:00.376Z,272.00
2023-12-18T08:49:00.414Z,260.00
2023-12-18T08:50:00.204Z,268.00
2023-12-18T08:51:00.228Z,284.00
2023-12-18T08:52:00.298Z,284.00
2023-12-18T08:53:00.197Z,316.00
2023-12-18T08:54:00.191Z,304.00
2023-12-18T08:55:00.216Z,332.00
2023-12-18T08:56:00.162Z,396.00
2023-12-18T08:57:00.160Z,376.00
2023-12-18T08:58:00.137Z,420.00
2023-12-18T08:59:00.120Z,528.00
2023-12-18T09:00:00.069Z,568.00
2023-12-18T09:01:00.162Z,832.00
2023-12-18T09:02:00.058Z,1092.00
2023-12-18T09:03:00.089Z,1772.00
2023-12-18T09:04:00.125Z,2648.00
2023-12-18T09:05:00.038Z,2672.00
2023-12-18T09:06:00.014Z,2088.00
2023-12-18T09:07:00.055Z,1964.00
2023-12-18T09:08:00.012Z,1716.00
2023-12-18T09:08:59.988Z,1332.00
2023-12-18T09:09:59.974Z,1384.00
2023-12-18T09:10:59.937Z,2104.00
2023-12-18T09:11:59.944Z,1544.00
2023-12-18T09:12:59.944Z,968.00
2023-12-18T09:13:59.948Z,1444.00
2023-12-18T09:14:59.873Z,2124.00
2023-12-18T09:15:59.889Z,2716.00
2023-12-18T09:16:59.846Z,2936.00
2023-12-18T09:17:59.889Z,2456.00
2023-12-18T09:19:00.103Z,2172.00
2023-12-18T09:19:59.914Z,2072.00
2023-12-18T09:20:59.836Z,2612.00
2023-12-18T09:21:59.837Z,3428.00
2023-12-18T09:22:59.798Z,4620.00
2023-12-18T09:23:59.798Z,5904.00
2023-12-18T09:24:59.809Z,5604.00
2023-12-18T09:25:59.804Z,3536.00
2023-12-18T09:26:59.728Z,3236.00
2023-12-18T09:27:59.728Z,5772.00
2023-12-18T09:28:59.763Z,7736.00
2023-12-18T09:29:59.695Z,7812.00
2023-12-18T09:30:59.794Z,7840.00
2023-12-18T09:31:59.834Z,8068.00
2023-12-18T09:32:59.794Z,7856.00
2023-12-18T09:33:59.842Z,7696.00
2023-12-18T09:34:59.715Z,7924.00
2023-12-18T09:36:00.950Z,8884.00
2023-12-18T09:36:59.629Z,9808.00
2023-12-18T09:37:59.609Z,9012.00
2023-12-18T09:38:59.598Z,8552.00
2023-12-18T09:39:59.561Z,10980.00
2023-12-18T09:40:59.532Z,10080.00
2023-12-18T09:41:59.597Z,8316.00
2023-12-18T09:42:59.607Z,9368.00
2023-12-18T09:43:59.526Z,9272.00
2023-12-18T09:44:59.495Z,10600.00
2023-12-18T09:46:00.017Z,12064.00
2023-12-18T09:46:59.486Z,12352.00
2023-12-18T09:47:59.594Z,13312.00
2023-12-18T09:48:59.554Z,13792.00
2023-12-18T09:49:59.469Z,15264.00
2023-12-18T09:50:59.407Z,15584.00
2023-12-18T09:51:59.424Z,14336.00
2023-12-18T09:52:59.372Z,14592.00
2023-12-18T09:53:59.418Z,15392.00
2023-12-18T09:54:59.369Z,15296.00
2023-12-18T09:55:59.385Z,15360.00
2023-12-18T09:56:59.352Z,14560.00
2023-12-18T09:57:59.361Z,14464.00
2023-12-18T09:58:59.302Z,14784.00
2023-12-18T09:59:59.314Z,14944.00
2023-12-18T10:00:59.425Z,15040.00
2023-12-18T10:01:59.330Z,14912.00
2023-12-18T10:02:59.275Z,15552.00
2023-12-18T10:03:59.292Z,15680.00
2023-12-18T10:04:59.279Z,15168.00
2023-12-18T10:05:59.236Z,14816.00
2023-12-18T10:06:59.225Z,14560.00
2023-12-18T10:07:59.197Z,14464.00
2023-12-18T10:08:59.173Z,13824.00
2023-12-18T10:09:59.250Z,13056.00
2023-12-18T10:10:59.166Z,10656.00
2023-12-18T10:11:59.170Z,4576.00
2023-12-18T10:12:59.312Z,540.00
2023-12-18T10:13:59.170Z,284.00
2023-12-18T10:14:59.105Z,272.00
2023-12-18T10:15:59.137Z,256.00
2023-12-18T10:16:59.087Z,260.00
2023-12-18T10:17:59.113Z,264.00
2023-12-18T10:18:59.131Z,256.00
2023-12-18T10:19:59.108Z,228.00
2023-12-18T10:20:59.025Z,228.00
2023-12-18T10:21:59.036Z,228.00
2023-12-18T10:22:58.986Z,224.00
2023-12-18T10:23:59.029Z,220.00
2023-12-18T10:24:59.007Z,236.00
2023-12-18T10:25:58.964Z,232.00
2023-12-18T10:26:58.943Z,208.00
2023-12-18T10:27:58.986Z,208.00
2023-12-18T10:28:58.908Z,212.00
2023-12-18T10:29:58.927Z,212.00
2023-12-18T10:30:59.002Z,208.00
2023-12-18T10:31:58.909Z,200.00
2023-12-18T10:32:58.989Z,196.00
2023-12-18T10:33:59.022Z,196.00
2023-12-18T10:34:58.861Z,192.00
2023-12-18T10:35:58.841Z,192.00
2023-12-18T10:36:58.841Z,196.00
2023-12-18T10:37:58.875Z,196.00
2023-12-18T10:38:58.778Z,192.00
2023-12-18T10:39:58.787Z,192.00
2023-12-18T10:40:58.756Z,188.00
2023-12-18T10:41:58.769Z,192.00
2023-12-18T10:42:58.734Z,184.00
2023-12-18T10:43:58.771Z,188.00
2023-12-18T10:44:58.742Z,184.00
2023-12-18T10:45:58.774Z,188.00
2023-12-18T10:46:58.688Z,188.00
2023-12-18T10:47:58.742Z,184.00
2023-12-18T10:48:58.759Z,180.00
2023-12-18T10:49:58.687Z,180.00
2023-12-18T10:50:58.633Z,180.00
2023-12-18T10:51:58.639Z,184.00
2023-12-18T10:52:58.591Z,180.00
2023-12-18T10:53:58.635Z,176.00
2023-12-18T10:54:58.566Z,180.00
2023-12-18T10:55:58.608Z,180.00
2023-12-18T10:56:58.591Z,180.00
2023-12-18T10:57:58.611Z,172.00
2023-12-18T10:58:58.546Z,176.00
2023-12-18T10:59:58.520Z,176.00
2023-12-18T11:00:58.568Z,172.00
2023-12-18T11:01:58.507Z,172.00
2023-12-18T11:02:58.536Z,172.00
2023-12-18T11:03:58.632Z,168.00
2023-12-18T11:04:58.495Z,164.00
2023-12-18T11:05:58.466Z,164.00
2023-12-18T11:06:58.500Z,164.00
2023-12-18T11:07:58.407Z,168.00
2023-12-18T11:08:58.415Z,168.00
2023-12-18T11:09:58.423Z,164.00
2023-12-18T11:10:58.361Z,164.00
2023-12-18T11:11:58.413Z,156.00
2023-12-18T11:12:58.379Z,152.00
2023-12-18T11:13:58.368Z,152.00
2023-12-18T11:14:58.302Z,156.00
2023-12-18T11:15:58.355Z,156.00
2023-12-18T11:16:58.328Z,152.00
2023-12-18T11:17:58.398Z,148.00
2023-12-18T11:19:08.444Z,152.00
2023-12-18T11:19:58.336Z,148.00
2023-12-18T11:20:58.274Z,148.00
2023-12-18T11:21:58.259Z,148.00
2023-12-18T11:22:58.272Z,144.00
2023-12-18T11:24:04.550Z,148.00
2023-12-18T11:24:58.180Z,144.00
2023-12-18T11:25:58.569Z,144.00
2023-12-18T11:26:58.149Z,140.00
2023-12-18T11:27:58.262Z,144.00
2023-12-18T11:28:58.151Z,144.00
2023-12-18T11:29:58.127Z,144.00
2023-12-18T11:30:58.130Z,144.00
2023-12-18T11:31:58.108Z,140.00
2023-12-18T11:32:58.100Z,144.00
2023-12-18T11:33:58.155Z,140.00
2023-12-18T11:34:58.154Z,140.00
2023-12-18T11:35:58.036Z,136.00
2023-12-18T11:36:58.104Z,140.00
2023-12-18T11:37:58.030Z,140.00
2023-12-18T11:38:58.020Z,136.00
2023-12-18T11:39:58.006Z,136.00
2023-12-18T11:40:57.982Z,132.00
2023-12-18T11:41:57.945Z,132.00
2023-12-18T11:42:58.012Z,132.00
2023-12-18T11:43:57.946Z,132.00
2023-12-18T11:44:57.953Z,132.00
2023-12-18T11:46:03.740Z,128.00
2023-12-18T11:46:57.941Z,128.00
2023-12-18T11:47:58.131Z,128.00
2023-12-18T11:48:57.941Z,124.00
2023-12-18T11:49:57.909Z,124.00
2023-12-18T11:50:57.949Z,124.00
2023-12-18T11:51:57.909Z,124.00
2023-12-18T11:52:57.829Z,124.00
2023-12-18T11:53:57.806Z,124.00
2023-12-18T11:54:57.826Z,124.00
2023-12-18T11:55:57.757Z,124.00
2023-12-18T11:56:57.816Z,120.00
2023-12-18T11:57:57.796Z,124.00
2023-12-18T11:58:57.759Z,120.00
2023-12-18T11:59:57.743Z,116.00
2023-12-18T12:00:57.789Z,116.00
2023-12-18T12:01:57.717Z,120.00
2023-12-18T12:02:57.693Z,116.00
2023-12-18T12:03:57.797Z,116.00
2023-12-18T12:04:57.715Z,116.00
2023-12-18T12:05:57.797Z,112.00
2023-12-18T12:06:57.689Z,112.00
2023-12-18T12:07:57.618Z,112.00
2023-12-18T12:08:57.643Z,108.00
2023-12-18T12:09:57.624Z,108.00
2023-12-18T12:10:57.587Z,112.00
2023-12-18T12:11:57.608Z,108.00
2023-12-18T12:12:57.643Z,108.00
2023-12-18T12:13:57.583Z,108.00
2023-12-18T12:14:57.531Z,108.00
2023-12-18T12:15:57.662Z,108.00
2023-12-18T12:16:57.543Z,108.00
2023-12-18T12:17:57.563Z,108.00
2023-12-18T12:18:57.648Z,108.00
2023-12-18T12:19:57.623Z,104.00
2023-12-18T12:20:57.495Z,108.00
2023-12-18T12:21:57.452Z,104.00
2023-12-18T12:22:57.432Z,104.00
2023-12-18T12:23:57.410Z,100.00
2023-12-18T12:24:57.534Z,100.00
2023-12-18T12:25:57.396Z,100.00
2023-12-18T12:26:57.364Z,100.00
2023-12-18T12:27:57.376Z,100.00
2023-12-18T12:28:57.354Z,100.00
2023-12-18T12:29:57.330Z,100.00
2023-12-18T12:30:57.461Z,100.00
2023-12-18T12:32:03.825Z,100.00
2023-12-18T12:32:57.436Z,96.00
2023-12-18T12:33:57.419Z,96.00
2023-12-18T12:34:57.563Z,96.00
2023-12-18T12:35:57.233Z,96.00
2023-12-18T12:36:57.279Z,96.00
2023-12-18T12:37:57.258Z,96.00
2023-12-18T12:38:57.233Z,96.00
2023-12-18T12:39:57.333Z,92.00
2023-12-18T12:40:57.195Z,92.00
2023-12-18T12:41:57.184Z,92.00
2023-12-18T12:42:57.184Z,92.00
2023-12-18T12:43:57.131Z,92.00
2023-12-18T12:44:57.251Z,88.00
2023-12-18T12:45:57.167Z,92.00
2023-12-18T12:46:57.129Z,88.00
2023-12-18T12:47:57.320Z,92.00
2023-12-18T12:48:57.181Z,92.00
2023-12-18T12:49:57.190Z,88.00
2023-12-18T12:50:57.081Z,88.00
2023-12-18T12:51:57.114Z,92.00
2023-12-18T12:52:57.064Z,88.00
2023-12-18T12:53:56.996Z,88.00
2023-12-18T12:54:57.049Z,88.00